createdAt,value
2022-09-07T00:02:07.229Z,73.82
2022-09-07T00:04:34.209Z,45.13
2022-09-07T00:07:00.711Z,39.83
2022-09-07T00:09:27.266Z,33.97
2022-09-07T00:11:53.697Z,44.55
2022-09-07T00:14:20.645Z,22.92
2022-09-07T00:16:47.131Z,15.32
2022-09-07T00:19:16.214Z,16.48
2022-09-07T00:21:42.701Z,12.75
2022-09-07T00:24:09.188Z,10.75
2022-09-07T00:26:35.663Z,10.23
2022-09-07T00:29:03.847Z,6.45
2022-09-07T00:31:31.071Z,8.80
2022-09-07T00:34:00.180Z,8.73
2022-09-07T00:36:27.328Z,11.75
2022-09-07T00:38:53.852Z,11.38
2022-09-07T00:41:21.594Z,9.38
2022-09-07T00:43:51.893Z,9.93
2022-09-07T00:46:30.116Z,9.68
2022-09-07T00:49:11.868Z,8.65
2022-09-07T00:51:42.238Z,7.30
2022-09-07T00:54:19.224Z,7.47
2022-09-07T00:56:48.361Z,9.70
2022-09-07T00:59:19.298Z,11.23
2022-09-07T01:01:46.202Z,9.52
2022-09-07T01:04:13.798Z,8.23
2022-09-07T01:06:42.344Z,10.10
2022-09-07T01:09:11.853Z,11.48
2022-09-07T01:11:38.897Z,11.55
2022-09-07T01:14:09.161Z,7.88
2022-09-07T01:16:55.087Z,13.10
2022-09-07T01:19:42.111Z,13.32
2022-09-07T01:22:38.961Z,14.95
2022-09-07T01:25:50.282Z,12.75
2022-09-07T01:28:27.139Z,10.10
2022-09-07T01:31:01.546Z,11.48
2022-09-07T01:33:47.013Z,11.50
2022-09-07T01:36:36.406Z,15.07
2022-09-07T01:39:05.026Z,9.48
2022-09-07T01:41:55.816Z,10.82
2022-09-07T01:44:27.614Z,11.80
2022-09-07T01:47:13.144Z,16.10
2022-09-07T01:49:48.010Z,12.45
2022-09-07T01:52:32.436Z,14.93
2022-09-07T01:55:05.654Z,15.15
2022-09-07T01:57:42.641Z,11.10
2022-09-07T02:00:12.684Z,12.30
2022-09-07T02:02:48.802Z,15.82
2022-09-07T02:05:33.927Z,11.77
2022-09-07T02:08:13.239Z,18.48
2022-09-07T02:10:45.191Z,14.38
2022-09-07T02:13:33.834Z,14.10
2022-09-07T02:16:05.847Z,17.30
2022-09-07T02:18:43.933Z,11.80
2022-09-07T02:21:11.319Z,19.92
2022-09-07T02:23:46.993Z,15.35
2022-09-07T02:26:17.938Z,16.23
2022-09-07T02:28:44.611Z,11.52
2022-09-07T02:31:11.358Z,13.13
2022-09-07T02:33:38.038Z,12.52
2022-09-07T02:36:05.832Z,9.35
2022-09-07T02:38:33.663Z,9.43
2022-09-07T02:41:01.967Z,8.63
2022-09-07T02:43:31.175Z,12.68
2022-09-07T02:46:21.233Z,5.68
2022-09-07T02:49:05.217Z,8.52
2022-09-07T02:52:06.778Z,7.32
2022-09-07T02:55:02.176Z,11.70
2022-09-07T02:58:02.829Z,6.60
2022-09-07T03:00:33.922Z,8.23
2022-09-07T03:03:23.611Z,10.00
2022-09-07T03:05:59.256Z,13.00
2022-09-07T03:08:31.673Z,9.90
2022-09-07T03:10:59.341Z,10.85
2022-09-07T03:13:29.209Z,11.52
2022-09-07T03:15:56.661Z,9.38
2022-09-07T03:18:24.904Z,9.05
2022-09-07T03:20:51.545Z,12.15
2022-09-07T03:23:18.185Z,13.10
2022-09-07T03:25:44.679Z,21.13
2022-09-07T03:28:11.591Z,10.98
2022-09-07T03:30:43.242Z,13.25
2022-09-07T03:33:10.637Z,14.23
2022-09-07T03:35:37.110Z,11.70
2022-09-07T03:38:03.561Z,13.73
2022-09-07T03:40:30.054Z,14.85
2022-09-07T03:42:56.599Z,15.90
2022-09-07T03:45:23.106Z,17.33
2022-09-07T03:47:51.087Z,20.70
2022-09-07T03:50:17.735Z,18.63
2022-09-07T03:52:44.197Z,23.27
2022-09-07T03:55:10.992Z,26.27
2022-09-07T03:57:37.484Z,21.75
2022-09-07T04:00:05.346Z,23.67
2022-09-07T04:02:31.889Z,22.35
2022-09-07T04:04:58.424Z,20.40
2022-09-07T04:07:24.878Z,21.67
2022-09-07T04:09:51.559Z,21.10
2022-09-07T04:12:18.069Z,19.92
2022-09-07T04:14:46.793Z,22.70
2022-09-07T04:17:13.287Z,18.92
2022-09-07T04:19:39.771Z,22.77
2022-09-07T04:22:06.197Z,22.95
2022-09-07T04:24:32.645Z,26.83
2022-09-07T04:26:59.137Z,31.58
2022-09-07T04:29:25.641Z,29.15
2022-09-07T04:31:52.061Z,27.23
2022-09-07T04:34:18.761Z,30.83
2022-09-07T04:36:45.215Z,31.63
2022-09-07T04:39:11.666Z,29.48
2022-09-07T04:41:38.150Z,35.50
2022-09-07T04:44:05.179Z,31.67
2022-09-07T04:46:36.632Z,34.33
2022-09-07T04:49:06.694Z,41.47
2022-09-07T04:51:33.278Z,43.92
2022-09-07T04:54:02.011Z,43.25
2022-09-07T04:56:29.635Z,48.90
2022-09-07T04:58:56.085Z,45.13
2022-09-07T05:01:24.643Z,50.35
2022-09-07T05:03:51.523Z,55.55
2022-09-07T05:06:19.931Z,52.63
2022-09-07T05:08:50.275Z,57.97
2022-09-07T05:11:17.573Z,51.83
2022-09-07T05:13:44.125Z,63.38
2022-09-07T05:16:15.625Z,55.67
2022-09-07T05:18:42.349Z,53.03
2022-09-07T05:21:14.080Z,53.50
2022-09-07T05:23:41.381Z,55.40
2022-09-07T05:26:09.145Z,46.55
2022-09-07T05:28:36.361Z,46.67
2022-09-07T05:31:20.465Z,49.88
2022-09-07T05:36:37.272Z,43.53
2022-09-07T05:39:04.878Z,49.22
2022-09-07T05:41:31.670Z,42.20
2022-09-07T05:46:44.826Z,42.55
2022-09-07T05:49:11.372Z,34.65
2022-09-07T05:51:38.012Z,41.42
2022-09-07T05:54:04.609Z,39.83
2022-09-07T05:56:35.203Z,40.58
2022-09-07T05:59:01.840Z,31.75
2022-09-07T06:01:28.378Z,32.03
2022-09-07T06:03:54.832Z,38.17
2022-09-07T06:06:21.571Z,33.40
2022-09-07T06:08:50.428Z,26.92
2022-09-07T06:11:20.214Z,31.98
2022-09-07T06:13:46.871Z,31.23
2022-09-07T06:16:14.901Z,33.75
2022-09-07T06:18:44.205Z,34.53
2022-09-07T06:21:15.074Z,35.35
2022-09-07T06:23:45.931Z,38.10
2022-09-07T06:26:13.313Z,35.72
2022-09-07T06:28:42.270Z,37.50
2022-09-07T06:31:11.646Z,46.35
2022-09-07T06:33:38.459Z,45.30
2022-09-07T06:36:07.967Z,39.75
2022-09-07T06:38:39.462Z,53.30
2022-09-07T06:43:57.107Z,54.10
2022-09-07T06:49:11.315Z,56.13
2022-09-07T06:51:38.638Z,54.60
2022-09-07T06:56:51.868Z,63.75
2022-09-07T06:59:18.360Z,59.33
2022-09-07T07:01:47.649Z,58.97
2022-09-07T07:04:14.166Z,49.78
2022-09-07T07:06:40.638Z,50.60
2022-09-07T07:09:08.681Z,54.78
2022-09-07T07:11:37.163Z,50.78
2022-09-07T07:14:04.240Z,56.25
2022-09-07T07:16:31.031Z,58.15
2022-09-07T07:18:57.944Z,58.28
2022-09-07T07:21:24.466Z,66.90
2022-09-07T07:23:52.527Z,66.60
2022-09-07T07:26:21.431Z,69.45
2022-09-07T07:31:25.883Z,70.43
2022-09-07T07:34:11.678Z,73.53
2022-09-07T07:36:38.750Z,64.88
2022-09-07T07:39:05.268Z,66.85
2022-09-07T07:44:20.499Z,69.65
2022-09-07T07:46:49.056Z,68.40
2022-09-07T07:49:15.945Z,63.63
2022-09-07T07:54:29.205Z,65.60
2022-09-07T07:56:55.584Z,65.32
2022-09-07T07:59:22.036Z,58.78
2022-09-07T08:01:48.547Z,59.40
2022-09-07T08:04:15.499Z,51.80
2022-09-07T08:06:42.906Z,65.63
2022-09-07T08:09:10.918Z,53.40
2022-09-07T08:11:40.490Z,61.67
2022-09-07T08:14:08.526Z,57.20
2022-09-07T08:16:36.145Z,58.20
2022-09-07T08:19:02.699Z,54.03
2022-09-07T08:21:29.794Z,59.70
2022-09-07T08:23:56.254Z,55.72
2022-09-07T08:26:22.733Z,52.85
2022-09-07T08:28:49.287Z,55.05
2022-09-07T08:31:16.981Z,59.83
2022-09-07T08:33:43.879Z,56.65
2022-09-07T08:36:12.849Z,50.65
2022-09-07T08:38:39.534Z,55.00
2022-09-07T08:41:40.484Z,53.17
2022-09-07T08:44:31.271Z,54.58
2022-09-07T08:47:16.911Z,57.33
2022-09-07T08:49:56.912Z,48.22
2022-09-07T08:52:27.578Z,51.53
2022-09-07T08:55:04.822Z,56.00
2022-09-07T08:57:35.032Z,50.83
2022-09-07T09:00:05.739Z,47.03
2022-09-07T09:05:31.796Z,45.58
2022-09-07T09:06:10.906Z,48.53
2022-09-07T09:08:23.991Z,47.60
2022-09-07T09:11:31.792Z,44.10
2022-09-07T09:14:21.903Z,42.95
2022-09-07T09:17:07.433Z,45.97
2022-09-07T09:20:01.338Z,42.70
2022-09-07T09:22:28.499Z,45.80
2022-09-07T09:25:16.652Z,55.72
2022-09-07T09:27:43.481Z,37.53
2022-09-07T09:30:24.135Z,40.17
2022-09-07T09:32:52.859Z,43.28
2022-09-07T09:35:34.512Z,42.25
2022-09-07T09:38:03.521Z,39.83
2022-09-07T09:40:33.138Z,41.40
2022-09-07T09:43:20.250Z,36.67
2022-09-07T09:48:40.305Z,36.00
2022-09-07T09:54:16.890Z,37.97
2022-09-07T09:56:46.014Z,37.00
2022-09-07T10:05:33.581Z,29.08
2022-09-07T10:08:00.379Z,32.08
2022-09-07T10:10:28.724Z,31.98
2022-09-07T10:12:56.145Z,28.10
2022-09-07T10:15:40.469Z,25.60
2022-09-07T10:18:21.142Z,23.38
2022-09-07T10:20:47.615Z,23.95
2022-09-07T10:23:23.125Z,24.73
2022-09-07T10:25:49.625Z,24.45
2022-09-07T10:28:22.529Z,24.10
2022-09-07T10:31:24.897Z,25.88
2022-09-07T10:34:26.522Z,25.52
2022-09-07T10:37:04.322Z,21.08
2022-09-07T10:39:39.490Z,19.50
2022-09-07T10:42:09.294Z,22.38
2022-09-07T10:45:13.061Z,18.38
2022-09-07T10:48:07.926Z,20.30
2022-09-07T10:50:43.267Z,25.67
2022-09-07T10:53:42.925Z,21.38
2022-09-07T10:56:27.715Z,17.00
2022-09-07T11:02:24.449Z,14.20
2022-09-07T11:05:19.276Z,16.85
2022-09-07T11:08:15.177Z,17.40
2022-09-07T11:11:03.575Z,17.85
2022-09-07T11:13:40.969Z,13.52
2022-09-07T11:19:37.282Z,18.67
2022-09-07T11:22:16.050Z,19.52
2022-09-07T11:28:12.947Z,16.50
2022-09-07T11:30:50.452Z,18.65
2022-09-07T11:33:23.053Z,12.73
2022-09-07T11:35:55.112Z,13.80
2022-09-07T11:38:27.418Z,13.18
2022-09-07T11:41:02.576Z,14.88
2022-09-07T11:43:37.869Z,13.02
2022-09-07T11:46:11.648Z,15.05
2022-09-07T11:48:58.642Z,14.60
2022-09-07T11:51:44.491Z,13.18
2022-09-07T11:54:38.689Z,13.02
2022-09-07T11:57:14.375Z,37.95
2022-09-07T12:00:02.035Z,13.77
2022-09-07T12:02:57.650Z,14.65
2022-09-07T12:05:36.265Z,14.13
2022-09-07T12:08:14.582Z,13.43
2022-09-07T12:11:23.064Z,15.30
2022-09-07T12:14:19.651Z,11.85
2022-09-07T12:17:11.704Z,14.38
2022-09-07T12:19:38.148Z,14.32
2022-09-07T12:22:05.348Z,14.02
2022-09-07T12:24:43.303Z,12.57
2022-09-07T12:27:21.929Z,14.55
2022-09-07T12:29:50.199Z,19.40
2022-09-07T12:32:56.101Z,13.95
2022-09-07T12:35:26.569Z,12.73
2022-09-07T12:37:56.619Z,13.68
2022-09-07T12:40:29.390Z,12.18
2022-09-07T12:43:13.961Z,43.63
2022-09-07T12:45:40.380Z,20.77
2022-09-07T12:48:16.060Z,16.05
2022-09-07T12:51:59.683Z,11.93
2022-09-07T12:54:17.692Z,15.48
2022-09-07T13:00:14.081Z,15.23
2022-09-07T13:03:04.800Z,16.73
2022-09-07T13:05:51.617Z,9.65
2022-09-07T13:09:10.093Z,16.92
2022-09-07T13:11:39.181Z,14.05
2022-09-07T13:14:27.053Z,13.13
2022-09-07T13:17:27.374Z,17.85
2022-09-07T13:19:53.872Z,15.55
2022-09-07T13:22:29.089Z,19.85
2022-09-07T13:24:59.424Z,11.60
2022-09-07T13:27:43.790Z,12.73
2022-09-07T13:30:16.696Z,12.25
2022-09-07T13:35:31.853Z,12.70
2022-09-07T13:38:03.473Z,15.55
2022-09-07T13:40:44.675Z,13.05
2022-09-07T13:43:19.205Z,11.00
2022-09-07T13:45:59.889Z,10.20
2022-09-07T13:48:36.331Z,11.68
2022-09-07T13:51:42.231Z,8.88
2022-09-07T13:54:26.826Z,7.78
2022-09-07T13:57:15.089Z,6.85
2022-09-07T13:59:42.597Z,12.57
2022-09-07T14:02:26.014Z,6.78
2022-09-07T14:04:55.183Z,10.30
2022-09-07T14:07:26.280Z,8.30
2022-09-07T14:10:07.250Z,7.45
2022-09-07T14:12:42.368Z,9.15
2022-09-07T14:15:20.277Z,9.07
2022-09-07T14:17:48.024Z,6.75
2022-09-07T14:20:16.946Z,8.77
2022-09-07T14:22:44.514Z,7.25
2022-09-07T14:25:18.541Z,12.18
2022-09-07T14:27:47.977Z,6.93
2022-09-07T14:30:14.342Z,10.70
2022-09-07T14:32:41.495Z,7.05
2022-09-07T14:35:13.512Z,8.30
2022-09-07T14:37:40.837Z,9.75
2022-09-07T14:40:15.207Z,8.07
2022-09-07T14:42:42.964Z,7.18
2022-09-07T14:45:18.351Z,7.20
2022-09-07T14:47:46.793Z,10.95
2022-09-07T14:50:39.176Z,9.18
2022-09-07T14:56:09.550Z,11.20
2022-09-07T14:58:35.983Z,10.10
2022-09-07T15:04:01.769Z,8.43
2022-09-07T15:09:37.203Z,8.93
2022-09-07T15:12:37.945Z,7.72
2022-09-07T15:15:26.102Z,9.27
2022-09-07T15:17:55.674Z,10.45
2022-09-07T15:20:35.903Z,7.60
2022-09-07T15:23:10.292Z,9.13
2022-09-07T15:25:37.752Z,7.65
2022-09-07T15:28:04.640Z,8.57
2022-09-07T15:30:31.144Z,10.50
2022-09-07T15:33:00.714Z,10.32
2022-09-07T15:35:27.130Z,12.25
2022-09-07T15:38:02.455Z,8.13
2022-09-07T15:41:03.630Z,11.50
2022-09-07T15:43:29.157Z,13.32
2022-09-07T15:45:55.726Z,11.38
2022-09-07T15:48:25.315Z,11.27
2022-09-07T15:51:00.035Z,9.82
2022-09-07T15:56:12.909Z,10.43
2022-09-07T15:58:39.426Z,11.85
2022-09-07T16:03:54.140Z,10.77
2022-09-07T16:06:22.103Z,8.82
2022-09-07T16:08:51.421Z,10.07
2022-09-07T16:11:25.356Z,8.13
2022-09-07T16:13:56.089Z,12.82
2022-09-07T16:16:23.549Z,8.00
2022-09-07T16:19:13.728Z,9.02
2022-09-07T16:21:41.004Z,8.35
2022-09-07T16:24:09.025Z,9.82
2022-09-07T16:26:35.665Z,8.65
2022-09-07T16:29:02.305Z,7.55
2022-09-07T16:31:30.920Z,9.77
2022-09-07T16:33:58.052Z,7.95
2022-09-07T16:36:24.447Z,9.43
2022-09-07T16:38:59.029Z,10.82
2022-09-07T16:41:29.101Z,10.35
2022-09-07T16:43:56.083Z,10.10
2022-09-07T16:46:25.819Z,9.10
2022-09-07T16:48:54.310Z,10.63
2022-09-07T16:51:22.663Z,12.27
2022-09-07T16:53:51.298Z,8.45
2022-09-07T16:56:20.082Z,9.80
2022-09-07T16:58:49.385Z,8.35
2022-09-07T17:01:18.822Z,10.35
2022-09-07T17:03:45.855Z,9.13
2022-09-07T17:06:13.743Z,9.93
2022-09-07T17:08:40.877Z,10.18
2022-09-07T17:11:16.532Z,10.80
2022-09-07T17:13:43.782Z,7.93
2022-09-07T17:16:19.682Z,8.20
2022-09-07T17:21:37.033Z,10.70
2022-09-07T17:24:05.446Z,8.98
2022-09-07T17:26:32.747Z,8.00
2022-09-07T17:29:00.781Z,8.73
2022-09-07T17:34:17.509Z,7.70
2022-09-07T17:36:43.903Z,9.23
2022-09-07T17:39:14.931Z,10.13
2022-09-07T17:41:43.258Z,10.23
2022-09-07T17:44:09.782Z,10.13
2022-09-07T17:46:36.181Z,9.05
2022-09-07T17:49:03.526Z,9.98
2022-09-07T17:51:31.911Z,8.93
2022-09-07T17:54:09.210Z,9.75
2022-09-07T17:56:36.619Z,9.93
2022-09-07T18:01:49.687Z,11.10
2022-09-07T18:04:17.088Z,11.32
2022-09-07T18:06:43.668Z,10.07
2022-09-07T18:09:11.148Z,11.13
2022-09-07T18:11:46.402Z,14.23
2022-09-07T18:14:15.023Z,12.02
2022-09-07T18:16:42.896Z,10.25
2022-09-07T18:19:11.290Z,11.80
2022-09-07T18:21:40.955Z,16.17
2022-09-07T18:24:18.949Z,14.38
2022-09-07T18:26:50.911Z,12.45
2022-09-07T18:29:28.603Z,11.52
2022-09-07T18:31:55.954Z,16.45
2022-09-07T18:34:22.568Z,11.15
2022-09-07T18:36:49.199Z,11.00
2022-09-07T18:39:15.930Z,14.20
2022-09-07T18:41:42.422Z,12.13
2022-09-07T18:46:55.755Z,13.57
2022-09-07T18:49:22.178Z,14.32
2022-09-07T18:54:34.968Z,16.95
2022-09-07T18:57:01.360Z,14.43
2022-09-07T18:59:28.097Z,13.27
2022-09-07T19:02:01.365Z,15.35
2022-09-07T19:05:49.684Z,14.90
2022-09-07T19:07:17.301Z,14.60
2022-09-07T19:09:43.686Z,17.00
2022-09-07T19:12:10.148Z,16.83
2022-09-07T19:14:36.692Z,19.58
2022-09-07T19:17:03.199Z,16.08
2022-09-07T19:19:29.710Z,16.40
2022-09-07T19:21:57.721Z,22.15
2022-09-07T19:24:25.581Z,23.17
2022-09-07T19:26:54.702Z,21.77
2022-09-07T19:29:23.561Z,16.55
2022-09-07T19:32:07.657Z,15.65
2022-09-07T19:34:39.430Z,22.38
2022-09-07T19:37:07.522Z,16.48
2022-09-07T19:39:34.306Z,16.95
2022-09-07T19:42:02.074Z,17.55
2022-09-07T19:44:28.482Z,20.67
2022-09-07T19:46:55.410Z,21.88
2022-09-07T19:49:22.242Z,22.67
2022-09-07T19:51:51.994Z,19.92
2022-09-07T19:54:18.644Z,18.55
2022-09-07T19:56:45.060Z,27.77
2022-09-07T19:59:12.295Z,19.63
2022-09-07T20:01:40.550Z,20.42
2022-09-07T20:04:14.823Z,20.95
2022-09-07T20:06:43.948Z,20.23
2022-09-07T20:09:16.358Z,23.58
2022-09-07T20:11:46.268Z,22.23
2022-09-07T20:14:13.636Z,22.48
2022-09-07T20:16:41.418Z,22.20
2022-09-07T20:19:07.899Z,23.98
2022-09-07T20:21:36.712Z,22.95
2022-09-07T20:24:04.083Z,24.13
2022-09-07T20:26:32.155Z,25.13
2022-09-07T20:29:23.295Z,24.33
2022-09-07T20:31:48.823Z,22.50
2022-09-07T20:34:15.260Z,23.25
2022-09-07T20:36:41.717Z,27.98
2022-09-07T20:39:13.589Z,27.88
2022-09-07T20:41:40.030Z,23.90
2022-09-07T20:44:06.550Z,30.35
2022-09-07T20:46:33.113Z,25.73
2022-09-07T20:48:59.738Z,27.70
2022-09-07T20:51:26.210Z,25.73
2022-09-07T20:53:52.959Z,29.52
2022-09-07T20:56:22.569Z,36.45
2022-09-07T20:58:57.703Z,26.85
2022-09-07T21:01:24.640Z,24.98
2022-09-07T21:03:53.574Z,27.58
2022-09-07T21:06:21.891Z,27.83
2022-09-07T21:08:49.657Z,28.63
2022-09-07T21:11:19.343Z,30.00
2022-09-07T21:13:46.679Z,27.40
2022-09-07T21:16:15.803Z,31.15
2022-09-07T21:18:43.993Z,31.50
2022-09-07T21:21:19.769Z,35.88
2022-09-07T21:23:47.478Z,31.08
2022-09-07T21:26:13.971Z,31.80
2022-09-07T21:28:43.183Z,31.08
2022-09-07T21:31:09.752Z,34.08
2022-09-07T21:33:37.488Z,32.22
2022-09-07T21:36:09.905Z,33.03
2022-09-07T21:38:37.729Z,34.13
2022-09-07T21:41:11.968Z,30.80
2022-09-07T21:43:39.337Z,30.17
2022-09-07T21:46:14.571Z,30.73
2022-09-07T21:48:41.080Z,29.33
2022-09-07T21:51:09.999Z,33.15
2022-09-07T21:53:36.482Z,32.10
2022-09-07T21:56:06.024Z,29.92
2022-09-07T21:58:33.083Z,29.80
2022-09-07T22:01:07.757Z,32.85
2022-09-07T22:03:34.314Z,36.38
2022-09-07T22:06:03.830Z,33.60
2022-09-07T22:08:30.828Z,31.45
2022-09-07T22:11:06.458Z,38.42
2022-09-07T22:13:33.215Z,33.60
2022-09-07T22:15:59.822Z,35.88
2022-09-07T22:18:26.362Z,38.45
2022-09-07T22:21:10.358Z,33.13
2022-09-07T22:23:39.905Z,35.78
2022-09-07T22:26:06.865Z,39.83
2022-09-07T22:28:34.340Z,37.72
2022-09-07T22:31:16.999Z,39.80
2022-09-07T22:33:45.057Z,35.85
2022-09-07T22:36:23.270Z,39.30
2022-09-07T22:38:52.740Z,41.15
2022-09-07T22:41:25.461Z,41.00
2022-09-07T22:43:51.892Z,45.72
2022-09-07T22:46:20.492Z,43.65
2022-09-07T22:48:47.361Z,42.00
2022-09-07T22:51:13.785Z,42.85
2022-09-07T22:53:42.657Z,44.20
2022-09-07T22:56:14.413Z,46.33
2022-09-07T22:58:45.922Z,46.30
2022-09-07T23:01:12.950Z,39.85
2022-09-07T23:03:39.816Z,44.83
2022-09-07T23:06:06.375Z,53.58
2022-09-07T23:08:32.764Z,45.55
2022-09-07T23:11:04.963Z,47.67
2022-09-07T23:13:32.893Z,47.28
2022-09-07T23:16:04.491Z,49.78
2022-09-07T23:18:31.489Z,53.22
2022-09-07T23:21:00.615Z,54.20
2022-09-07T23:23:28.326Z,53.53
2022-09-07T23:25:54.775Z,62.90
2022-09-07T23:28:21.179Z,55.47
2022-09-07T23:30:48.985Z,58.92
2022-09-07T23:33:16.223Z,59.15
2022-09-07T23:35:42.825Z,60.92
2022-09-07T23:38:09.573Z,70.22
2022-09-07T23:40:36.027Z,59.63
2022-09-07T23:43:02.592Z,65.78
2022-09-07T23:45:29.727Z,64.20
2022-09-07T23:47:56.197Z,60.17
2022-09-07T23:50:22.686Z,60.70
2022-09-07T23:52:49.258Z,63.40
2022-09-07T23:55:15.750Z,65.05
2022-09-07T23:57:42.148Z,65.85
